OPMET informācija

Laikapstākļu informācija aviācijai uz 26.05.2020 01:01 UTC


TAF Rīga (FTLV31)


TAF EVRA 252320Z 2600/2624 VRB02KT 0700 FG BKN001 TEMPO
2600/2606 1500 BR BKN002 BECMG 2607/2609 34007KT
9999 NSW SCT015=

TAF Liepāja (FTLV32)


TAF EVLA 252323Z 2600/2624 VRB02KT 4000 BR BKN003 TEMPO
2600/2606 0700 FG BECMG 2607/2609 35007KT 9999
NSW SCT015 BECMG 2620/2622 VRB02KT=

METAR Rīga (SALV31)


METAR EVRA 260050Z 00000KT 0500 0450 R36/0500N FG VV001 06/06 Q1029
NOSIG=

METAR Ventspils un Liepāja (SALV32)


METAR EVVA 260050Z AUTO 01006KT CAVOK 09/09 Q1030=
METAR EVLA 260050Z AUTO VRB02KT 0550 R24/0600N R06/0700U FG VV002
07/07 Q1030=

GAMET Rīga (FALV51)


EVRR GAMET VALID 251500/252100 EVRA-
EVRR RIGA FIR BLW FL100
SECN I
SIGWX: FOR AREA E OF 3 ISOL TS
SIG CLD:15/18 LCA FOR AREAS S AND N OF 2 BKN 500/4000FT AGL
FOR AREAS 1 3 ISOL CB 1500/ABV 10000FT AGL
ICE:FOR AREA 3 MOD INC ABV 5500FT AMSL
SIGMET APPLICABLE:NIL
SECN II
PSYS:NO MAJOR WX SYSTEM
SFC WIND:FOR AREAS 1 2 3 VRB/02-07KT
FOR AREA S 350/05-10KT
WIND/T:
1000FT 360/10KT PS10
2000FT 340/10KT PS08
5000FT 330/10KT PS02
10000FT 350/05KT MS06
SFC VIS:10KM
CLD:FOR AREAS S 1 2 BKN/SCT SC 2000/7000FT AGL
FOR AREA 3 BKN SC AC 2000/ABV 10000FT AGL
FZLVL:5500-6000FT AMSL
MNM QNH:
15/18 1025HPA FOR S, 1024HPA FOR 1 2
1023HPA FOR 3
18/21 1027HPA FOR S, 1026HPA FOR 1
1025HPA FOR 2 3
SEA:T10 HGT 0.5M
OTLK:252100/252400 NOT PREPARED=